Главная страница
METAR-TAF:

METAR-TAF

Аэропорты :

Нуакшот, Мавритания

широта: 18-18-36N, долгота: 015-58-11W, высота над уровнем моря: 3 м

Текущие метеонаблюдения

Эта сводка был подготовлена 4 часа и 48 минут назад, в 23:00 UTC
Ветер 12 Узел от северно-северо-западный
Температура 26°C
Влажность 58%
Давление 1011 hPa
Видимость: 8000 м

METAR: GQNO 092300Z 34012KT 8000 NSC 26/17 Q1011 NOSIG

Время: 03:48 (03:48 UTC)

Прогноз

Эта сводка был подготовлена 4 часа и 48 минут назад, в 23:00 UTC
Прогноз действительный с 10-го 00 UTC до 11-го 06 UTC
Ветер 12 Узел от северно-северо-западный
Видимость: 7000 м
изменения
С 10-го 07 UTC до 10-го 10 UTC
Ветер 14 Узел от восточно-северо-восточный
изменения
С 10-го 14 UTC до 10-го 17 UTC
Ветер 12 Узел от северно-северо-западный

TAF: GQNO 092300Z 1000/1106 33012KT 7000 NSC BECMG 1007/1010 07014KT BECMG 1014/1017 33012KT

Метеонаблюдения и прогнозы для более 4000 аэропортов (сводки METAR и TAF).

Имеющиеся станции представлены на карте желтыми и красными точками.

Чтобы увидеть название станции, наведите на нее мышь.

Затем щелкните, чтобы увидеть метеонаблюдения и метеопрогнозы.

Управление картой: чтобы увеличить масштаб, щелкните зеленые кнопки с черным крестиком; чтобы уменьшить масштаб, щелкните зеленую кнопку с тире; для просмотра соседних карт щелкайте зеленые стрелки.


METAR-TAF: